sensor_id;sensor_type;location;lat;lon;timestamp;P1;durP1;ratioP1;P2;durP2;ratioP2
47455;SDS011;33202;48.512;-2.780;2023-03-31T00:01:25;35.08;;;6.97;;
47455;SDS011;33202;48.512;-2.780;2023-03-31T00:03:52;39.67;;;7.00;;
47455;SDS011;33202;48.512;-2.780;2023-03-31T00:06:29;37.10;;;6.88;;
47455;SDS011;33202;48.512;-2.780;2023-03-31T00:08:56;36.45;;;8.57;;
47455;SDS011;33202;48.512;-2.780;2023-03-31T00:11:26;40.10;;;7.45;;
47455;SDS011;33202;48.512;-2.780;2023-03-31T00:13:52;37.30;;;7.72;;
47455;SDS011;33202;48.512;-2.780;2023-03-31T00:16:18;35.67;;;7.35;;
47455;SDS011;33202;48.512;-2.780;2023-03-31T00:18:44;43.85;;;8.77;;
47455;SDS011;33202;48.512;-2.780;2023-03-31T00:21:15;43.05;;;8.60;;
47455;SDS011;33202;48.512;-2.780;2023-03-31T00:24:15;33.17;;;7.25;;
47455;SDS011;33202;48.512;-2.780;2023-03-31T00:26:42;31.63;;;6.85;;
47455;SDS011;33202;48.512;-2.780;2023-03-31T00:29:09;32.63;;;7.40;;
47455;SDS011;33202;48.512;-2.780;2023-03-31T00:31:36;32.30;;;7.10;;
47455;SDS011;33202;48.512;-2.780;2023-03-31T00:34:03;40.20;;;7.75;;
47455;SDS011;33202;48.512;-2.780;2023-03-31T00:36:30;34.83;;;6.50;;
47455;SDS011;33202;48.512;-2.780;2023-03-31T00:38:57;36.67;;;7.82;;
47455;SDS011;33202;48.512;-2.780;2023-03-31T00:41:23;35.22;;;6.45;;
47455;SDS011;33202;48.512;-2.780;2023-03-31T00:49:16;34.38;;;6.60;;
47455;SDS011;33202;48.512;-2.780;2023-03-31T00:51:45;36.83;;;7.57;;
47455;SDS011;33202;48.512;-2.780;2023-03-31T00:54:13;32.15;;;7.13;;
47455;SDS011;33202;48.512;-2.780;2023-03-31T00:56:40;39.50;;;7.20;;
47455;SDS011;33202;48.512;-2.780;2023-03-31T00:59:07;43.33;;;8.20;;
47455;SDS011;33202;48.512;-2.780;2023-03-31T01:01:35;32.00;;;6.65;;
47455;SDS011;33202;48.512;-2.780;2023-03-31T01:04:03;31.65;;;5.88;;
47455;SDS011;33202;48.512;-2.780;2023-03-31T01:06:31;33.95;;;7.88;;
47455;SDS011;33202;48.512;-2.780;2023-03-31T01:08:57;36.00;;;6.80;;
47455;SDS011;33202;48.512;-2.780;2023-03-31T01:11:25;28.00;;;5.82;;
47455;SDS011;33202;48.512;-2.780;2023-03-31T01:13:52;39.72;;;7.25;;
47455;SDS011;33202;48.512;-2.780;2023-03-31T01:16:20;32.22;;;6.68;;
47455;SDS011;33202;48.512;-2.780;2023-03-31T01:18:46;32.75;;;6.85;;
47455;SDS011;33202;48.512;-2.780;2023-03-31T01:26:32;31.23;;;5.43;;
47455;SDS011;33202;48.512;-2.780;2023-03-31T01:29:00;31.05;;;6.47;;
47455;SDS011;33202;48.512;-2.780;2023-03-31T01:34:27;27.50;;;5.50;;
47455;SDS011;33202;48.512;-2.780;2023-03-31T01:42:02;31.25;;;6.57;;
47455;SDS011;33202;48.512;-2.780;2023-03-31T01:44:41;30.83;;;6.68;;
47455;SDS011;33202;48.512;-2.780;2023-03-31T01:47:15;32.65;;;6.50;;
47455;SDS011;33202;48.512;-2.780;2023-03-31T01:50:03;35.67;;;6.82;;
47455;SDS011;33202;48.512;-2.780;2023-03-31T01:52:35;38.83;;;7.55;;
47455;SDS011;33202;48.512;-2.780;2023-03-31T01:55:04;37.35;;;7.18;;
47455;SDS011;33202;48.512;-2.780;2023-03-31T01:57:33;36.45;;;7.10;;
47455;SDS011;33202;48.512;-2.780;2023-03-31T02:05:06;30.35;;;6.95;;
47455;SDS011;33202;48.512;-2.780;2023-03-31T02:07:51;38.47;;;7.18;;
47455;SDS011;33202;48.512;-2.780;2023-03-31T02:10:18;35.40;;;6.90;;
47455;SDS011;33202;48.512;-2.780;2023-03-31T02:12:45;31.80;;;6.50;;
47455;SDS011;33202;48.512;-2.780;2023-03-31T02:15:13;29.15;;;6.80;;
47455;SDS011;33202;48.512;-2.780;2023-03-31T02:17:42;29.60;;;5.75;;
47455;SDS011;33202;48.512;-2.780;2023-03-31T02:22:36;31.98;;;5.60;;
47455;SDS011;33202;48.512;-2.780;2023-03-31T02:25:03;31.88;;;5.57;;
47455;SDS011;33202;48.512;-2.780;2023-03-31T02:27:32;28.05;;;5.68;;
47455;SDS011;33202;48.512;-2.780;2023-03-31T02:30:00;32.05;;;5.57;;
47455;SDS011;33202;48.512;-2.780;2023-03-31T02:35:03;27.10;;;4.90;;
47455;SDS011;33202;48.512;-2.780;2023-03-31T02:37:30;22.80;;;4.28;;
47455;SDS011;33202;48.512;-2.780;2023-03-31T02:39:57;23.45;;;5.15;;
47455;SDS011;33202;48.512;-2.780;2023-03-31T02:42:24;20.98;;;4.05;;
47455;SDS011;33202;48.512;-2.780;2023-03-31T02:44:50;19.90;;;3.67;;
47455;SDS011;33202;48.512;-2.780;2023-03-31T02:47:17;16.63;;;3.50;;
47455;SDS011;33202;48.512;-2.780;2023-03-31T02:49:45;21.58;;;3.45;;
47455;SDS011;33202;48.512;-2.780;2023-03-31T03:00:28;16.25;;;3.03;;
47455;SDS011;33202;48.512;-2.780;2023-03-31T03:05:55;13.10;;;3.15;;
47455;SDS011;33202;48.512;-2.780;2023-03-31T03:11:15;20.73;;;4.35;;
47455;SDS011;33202;48.512;-2.780;2023-03-31T03:13:48;23.08;;;4.00;;
47455;SDS011;33202;48.512;-2.780;2023-03-31T03:19:24;24.08;;;5.55;;
47455;SDS011;33202;48.512;-2.780;2023-03-31T03:21:50;18.77;;;4.80;;
47455;SDS011;33202;48.512;-2.780;2023-03-31T03:24:16;28.27;;;5.38;;
47455;SDS011;33202;48.512;-2.780;2023-03-31T03:26:42;25.77;;;5.00;;
47455;SDS011;33202;48.512;-2.780;2023-03-31T03:29:09;36.43;;;7.10;;
47455;SDS011;33202;48.512;-2.780;2023-03-31T03:31:39;33.92;;;6.05;;
47455;SDS011;33202;48.512;-2.780;2023-03-31T03:34:06;28.90;;;5.47;;
47455;SDS011;33202;48.512;-2.780;2023-03-31T03:39:00;23.20;;;5.28;;
47455;SDS011;33202;48.512;-2.780;2023-03-31T03:41:25;30.23;;;6.40;;
47455;SDS011;33202;48.512;-2.780;2023-03-31T03:43:51;29.30;;;5.63;;
47455;SDS011;33202;48.512;-2.780;2023-03-31T03:46:17;31.90;;;6.07;;
47455;SDS011;33202;48.512;-2.780;2023-03-31T03:48:42;32.33;;;5.13;;
47455;SDS011;33202;48.512;-2.780;2023-03-31T03:51:08;31.50;;;6.30;;
47455;SDS011;33202;48.512;-2.780;2023-03-31T03:53:33;31.33;;;5.13;;
47455;SDS011;33202;48.512;-2.780;2023-03-31T03:55:59;33.22;;;6.43;;
47455;SDS011;33202;48.512;-2.780;2023-03-31T03:58:25;24.42;;;5.15;;
47455;SDS011;33202;48.512;-2.780;2023-03-31T04:00:51;26.02;;;5.15;;
47455;SDS011;33202;48.512;-2.780;2023-03-31T04:03:16;29.48;;;5.75;;
47455;SDS011;33202;48.512;-2.780;2023-03-31T04:05:42;19.23;;;4.80;;
47455;SDS011;33202;48.512;-2.780;2023-03-31T04:08:08;25.95;;;5.35;;
47455;SDS011;33202;48.512;-2.780;2023-03-31T04:10:34;30.38;;;6.10;;
47455;SDS011;33202;48.512;-2.780;2023-03-31T04:13:00;26.58;;;5.50;;
47455;SDS011;33202;48.512;-2.780;2023-03-31T04:15:26;25.67;;;5.30;;
47455;SDS011;33202;48.512;-2.780;2023-03-31T04:17:51;27.73;;;5.55;;
47455;SDS011;33202;48.512;-2.780;2023-03-31T04:20:18;30.63;;;5.68;;
47455;SDS011;33202;48.512;-2.780;2023-03-31T04:22:45;21.98;;;4.80;;
47455;SDS011;33202;48.512;-2.780;2023-03-31T04:25:14;22.38;;;5.15;;
47455;SDS011;33202;48.512;-2.780;2023-03-31T04:27:44;25.55;;;4.85;;
47455;SDS011;33202;48.512;-2.780;2023-03-31T04:30:14;20.63;;;4.32;;
47455;SDS011;33202;48.512;-2.780;2023-03-31T04:32:50;27.73;;;5.53;;
47455;SDS011;33202;48.512;-2.780;2023-03-31T04:35:19;25.05;;;4.80;;
47455;SDS011;33202;48.512;-2.780;2023-03-31T04:37:49;25.25;;;5.28;;
47455;SDS011;33202;48.512;-2.780;2023-03-31T04:40:16;26.63;;;5.22;;
47455;SDS011;33202;48.512;-2.780;2023-03-31T04:42:43;29.35;;;5.40;;
47455;SDS011;33202;48.512;-2.780;2023-03-31T04:45:09;30.80;;;5.10;;
47455;SDS011;33202;48.512;-2.780;2023-03-31T04:47:36;28.00;;;5.65;;
47455;SDS011;33202;48.512;-2.780;2023-03-31T04:50:01;31.13;;;5.53;;
47455;SDS011;33202;48.512;-2.780;2023-03-31T04:52:27;29.40;;;5.55;;
47455;SDS011;33202;48.512;-2.780;2023-03-31T04:54:53;26.02;;;4.80;;
47455;SDS011;33202;48.512;-2.780;2023-03-31T04:57:19;21.23;;;5.10;;
47455;SDS011;33202;48.512;-2.780;2023-03-31T04:59:45;25.27;;;6.05;;
47455;SDS011;33202;48.512;-2.780;2023-03-31T05:02:11;22.90;;;4.43;;
47455;SDS011;33202;48.512;-2.780;2023-03-31T05:04:36;33.47;;;5.82;;
47455;SDS011;33202;48.512;-2.780;2023-03-31T05:07:02;28.63;;;5.85;;
47455;SDS011;33202;48.512;-2.780;2023-03-31T05:09:27;26.83;;;5.20;;
47455;SDS011;33202;48.512;-2.780;2023-03-31T05:11:53;27.25;;;5.75;;
47455;SDS011;33202;48.512;-2.780;2023-03-31T05:14:19;25.92;;;5.13;;
47455;SDS011;33202;48.512;-2.780;2023-03-31T05:16:45;35.22;;;5.75;;
47455;SDS011;33202;48.512;-2.780;2023-03-31T05:19:10;26.02;;;4.97;;
47455;SDS011;33202;48.512;-2.780;2023-03-31T05:21:36;23.08;;;5.10;;
47455;SDS011;33202;48.512;-2.780;2023-03-31T05:24:01;29.55;;;6.20;;
47455;SDS011;33202;48.512;-2.780;2023-03-31T05:26:28;25.02;;;5.22;;
47455;SDS011;33202;48.512;-2.780;2023-03-31T05:28:54;30.45;;;5.68;;
47455;SDS011;33202;48.512;-2.780;2023-03-31T05:31:20;25.58;;;4.72;;
47455;SDS011;33202;48.512;-2.780;2023-03-31T05:33:46;26.77;;;5.20;;
47455;SDS011;33202;48.512;-2.780;2023-03-31T05:36:13;22.85;;;4.60;;
47455;SDS011;33202;48.512;-2.780;2023-03-31T05:38:40;27.48;;;5.45;;
47455;SDS011;33202;48.512;-2.780;2023-03-31T05:41:07;17.80;;;3.67;;
47455;SDS011;33202;48.512;-2.780;2023-03-31T05:43:33;18.45;;;4.45;;
47455;SDS011;33202;48.512;-2.780;2023-03-31T05:46:00;17.52;;;3.42;;
47455;SDS011;33202;48.512;-2.780;2023-03-31T05:48:26;21.08;;;3.25;;
47455;SDS011;33202;48.512;-2.780;2023-03-31T05:50:55;19.15;;;3.97;;
47455;SDS011;33202;48.512;-2.780;2023-03-31T05:53:24;21.60;;;4.55;;
47455;SDS011;33202;48.512;-2.780;2023-03-31T05:55:55;25.52;;;4.38;;
47455;SDS011;33202;48.512;-2.780;2023-03-31T05:58:22;30.38;;;4.18;;
47455;SDS011;33202;48.512;-2.780;2023-03-31T06:00:48;19.33;;;4.22;;
47455;SDS011;33202;48.512;-2.780;2023-03-31T06:03:13;23.45;;;4.30;;
47455;SDS011;33202;48.512;-2.780;2023-03-31T06:05:45;20.77;;;3.80;;
47455;SDS011;33202;48.512;-2.780;2023-03-31T06:08:12;22.10;;;4.88;;
47455;SDS011;33202;48.512;-2.780;2023-03-31T06:10:37;27.45;;;4.65;;
47455;SDS011;33202;48.512;-2.780;2023-03-31T06:13:03;24.38;;;4.22;;
47455;SDS011;33202;48.512;-2.780;2023-03-31T06:15:28;30.70;;;5.50;;
47455;SDS011;33202;48.512;-2.780;2023-03-31T06:17:55;25.30;;;5.57;;
47455;SDS011;33202;48.512;-2.780;2023-03-31T06:20:21;22.17;;;4.88;;
47455;SDS011;33202;48.512;-2.780;2023-03-31T06:22:47;24.65;;;4.70;;
47455;SDS011;33202;48.512;-2.780;2023-03-31T06:25:13;22.70;;;4.80;;
47455;SDS011;33202;48.512;-2.780;2023-03-31T06:27:39;18.88;;;4.28;;
47455;SDS011;33202;48.512;-2.780;2023-03-31T06:30:05;24.42;;;4.88;;
47455;SDS011;33202;48.512;-2.780;2023-03-31T06:32:31;19.10;;;3.85;;
47455;SDS011;33202;48.512;-2.780;2023-03-31T06:34:57;27.60;;;4.65;;
47455;SDS011;33202;48.512;-2.780;2023-03-31T06:37:22;18.23;;;4.32;;
47455;SDS011;33202;48.512;-2.780;2023-03-31T06:39:48;25.08;;;4.80;;
47455;SDS011;33202;48.512;-2.780;2023-03-31T06:42:14;25.23;;;4.25;;
47455;SDS011;33202;48.512;-2.780;2023-03-31T06:44:40;21.58;;;4.32;;
47455;SDS011;33202;48.512;-2.780;2023-03-31T06:47:06;18.52;;;4.18;;
47455;SDS011;33202;48.512;-2.780;2023-03-31T06:49:32;21.05;;;4.35;;
47455;SDS011;33202;48.512;-2.780;2023-03-31T06:51:58;17.63;;;4.50;;
47455;SDS011;33202;48.512;-2.780;2023-03-31T06:54:25;22.85;;;4.03;;
47455;SDS011;33202;48.512;-2.780;2023-03-31T06:56:51;17.05;;;3.53;;
47455;SDS011;33202;48.512;-2.780;2023-03-31T06:59:17;23.05;;;4.75;;
47455;SDS011;33202;48.512;-2.780;2023-03-31T07:01:43;24.80;;;4.38;;
47455;SDS011;33202;48.512;-2.780;2023-03-31T07:04:10;18.42;;;3.83;;
47455;SDS011;33202;48.512;-2.780;2023-03-31T07:06:36;28.25;;;5.32;;
47455;SDS011;33202;48.512;-2.780;2023-03-31T07:09:02;20.90;;;4.00;;
47455;SDS011;33202;48.512;-2.780;2023-03-31T07:11:28;26.90;;;4.80;;
47455;SDS011;33202;48.512;-2.780;2023-03-31T07:13:54;16.52;;;4.45;;
47455;SDS011;33202;48.512;-2.780;2023-03-31T07:16:20;21.35;;;4.35;;
47455;SDS011;33202;48.512;-2.780;2023-03-31T07:18:47;25.10;;;4.18;;
47455;SDS011;33202;48.512;-2.780;2023-03-31T07:21:14;27.02;;;5.45;;
47455;SDS011;33202;48.512;-2.780;2023-03-31T07:23:40;23.17;;;4.47;;
47455;SDS011;33202;48.512;-2.780;2023-03-31T07:26:06;26.75;;;5.18;;
47455;SDS011;33202;48.512;-2.780;2023-03-31T07:28:32;23.48;;;5.88;;
47455;SDS011;33202;48.512;-2.780;2023-03-31T07:30:58;26.98;;;5.63;;
47455;SDS011;33202;48.512;-2.780;2023-03-31T07:33:25;30.13;;;5.35;;
47455;SDS011;33202;48.512;-2.780;2023-03-31T07:35:50;26.65;;;4.65;;
47455;SDS011;33202;48.512;-2.780;2023-03-31T07:38:16;28.70;;;5.20;;
47455;SDS011;33202;48.512;-2.780;2023-03-31T07:40:43;24.73;;;5.00;;
47455;SDS011;33202;48.512;-2.780;2023-03-31T07:43:10;25.05;;;4.40;;
47455;SDS011;33202;48.512;-2.780;2023-03-31T07:45:37;23.73;;;4.40;;
47455;SDS011;33202;48.512;-2.780;2023-03-31T07:50:29;27.02;;;4.93;;
47455;SDS011;33202;48.512;-2.780;2023-03-31T07:52:55;22.00;;;5.15;;
47455;SDS011;33202;48.512;-2.780;2023-03-31T07:55:22;26.10;;;4.45;;
47455;SDS011;33202;48.512;-2.780;2023-03-31T07:57:50;21.33;;;4.93;;
47455;SDS011;33202;48.512;-2.780;2023-03-31T08:00:16;17.20;;;4.10;;
47455;SDS011;33202;48.512;-2.780;2023-03-31T08:02:42;20.35;;;4.30;;
47455;SDS011;33202;48.512;-2.780;2023-03-31T08:05:09;19.42;;;4.10;;
47455;SDS011;33202;48.512;-2.780;2023-03-31T08:07:36;21.30;;;4.43;;
47455;SDS011;33202;48.512;-2.780;2023-03-31T08:10:03;22.02;;;3.85;;
47455;SDS011;33202;48.512;-2.780;2023-03-31T08:12:29;15.45;;;3.15;;
47455;SDS011;33202;48.512;-2.780;2023-03-31T08:14:55;16.17;;;3.78;;
47455;SDS011;33202;48.512;-2.780;2023-03-31T08:17:21;18.27;;;3.53;;
47455;SDS011;33202;48.512;-2.780;2023-03-31T08:19:48;22.00;;;4.07;;
47455;SDS011;33202;48.512;-2.780;2023-03-31T08:22:15;19.95;;;3.10;;
47455;SDS011;33202;48.512;-2.780;2023-03-31T08:24:41;17.55;;;3.90;;
47455;SDS011;33202;48.512;-2.780;2023-03-31T08:27:07;15.23;;;2.75;;
47455;SDS011;33202;48.512;-2.780;2023-03-31T08:29:33;15.55;;;3.42;;
47455;SDS011;33202;48.512;-2.780;2023-03-31T08:31:59;19.33;;;3.25;;
47455;SDS011;33202;48.512;-2.780;2023-03-31T08:34:25;18.60;;;4.07;;
47455;SDS011;33202;48.512;-2.780;2023-03-31T08:36:52;23.08;;;3.83;;
47455;SDS011;33202;48.512;-2.780;2023-03-31T08:39:19;14.63;;;3.40;;
47455;SDS011;33202;48.512;-2.780;2023-03-31T08:44:41;15.93;;;3.08;;
47455;SDS011;33202;48.512;-2.780;2023-03-31T08:47:15;21.33;;;3.38;;
47455;SDS011;33202;48.512;-2.780;2023-03-31T08:49:47;17.83;;;4.30;;
47455;SDS011;33202;48.512;-2.780;2023-03-31T08:52:15;14.60;;;3.22;;
47455;SDS011;33202;48.512;-2.780;2023-03-31T08:54:45;16.10;;;3.67;;
47455;SDS011;33202;48.512;-2.780;2023-03-31T08:57:18;22.17;;;4.15;;
47455;SDS011;33202;48.512;-2.780;2023-03-31T08:59:45;17.20;;;3.28;;
47455;SDS011;33202;48.512;-2.780;2023-03-31T09:05:27;18.15;;;4.65;;
47455;SDS011;33202;48.512;-2.780;2023-03-31T09:15:05;25.33;;;3.88;;
47455;SDS011;33202;48.512;-2.780;2023-03-31T09:17:39;16.85;;;3.63;;
47455;SDS011;33202;48.512;-2.780;2023-03-31T09:20:14;26.60;;;3.90;;
47455;SDS011;33202;48.512;-2.780;2023-03-31T09:22:44;23.70;;;4.15;;
47455;SDS011;33202;48.512;-2.780;2023-03-31T09:28:13;18.85;;;3.90;;
47455;SDS011;33202;48.512;-2.780;2023-03-31T09:30:43;17.65;;;3.50;;
47455;SDS011;33202;48.512;-2.780;2023-03-31T09:33:14;16.70;;;3.40;;
47455;SDS011;33202;48.512;-2.780;2023-03-31T09:35:42;21.58;;;3.72;;
47455;SDS011;33202;48.512;-2.780;2023-03-31T09:38:11;17.95;;;3.25;;
47455;SDS011;33202;48.512;-2.780;2023-03-31T09:40:38;15.05;;;2.80;;
47455;SDS011;33202;48.512;-2.780;2023-03-31T09:43:20;10.18;;;2.15;;
47455;SDS011;33202;48.512;-2.780;2023-03-31T09:45:47;10.77;;;2.40;;
47455;SDS011;33202;48.512;-2.780;2023-03-31T09:48:15;10.30;;;1.75;;
47455;SDS011;33202;48.512;-2.780;2023-03-31T09:50:46;13.15;;;2.35;;
47455;SDS011;33202;48.512;-2.780;2023-03-31T09:53:14;12.13;;;2.72;;
47455;SDS011;33202;48.512;-2.780;2023-03-31T09:55:48;10.35;;;2.67;;
47455;SDS011;33202;48.512;-2.780;2023-03-31T09:58:16;16.50;;;3.63;;
47455;SDS011;33202;48.512;-2.780;2023-03-31T10:00:48;12.43;;;2.25;;
47455;SDS011;33202;48.512;-2.780;2023-03-31T10:03:23;13.23;;;3.10;;
47455;SDS011;33202;48.512;-2.780;2023-03-31T10:05:53;14.00;;;3.08;;
47455;SDS011;33202;48.512;-2.780;2023-03-31T10:08:21;13.25;;;2.90;;
47455;SDS011;33202;48.512;-2.780;2023-03-31T10:13:15;13.90;;;2.75;;
47455;SDS011;33202;48.512;-2.780;2023-03-31T10:15:42;13.45;;;2.47;;
47455;SDS011;33202;48.512;-2.780;2023-03-31T10:18:18;16.03;;;2.97;;
47455;SDS011;33202;48.512;-2.780;2023-03-31T10:20:49;13.40;;;3.33;;
47455;SDS011;33202;48.512;-2.780;2023-03-31T10:23:29;12.90;;;2.90;;
47455;SDS011;33202;48.512;-2.780;2023-03-31T10:25:56;14.98;;;3.35;;
47455;SDS011;33202;48.512;-2.780;2023-03-31T10:28:23;19.10;;;4.22;;
47455;SDS011;33202;48.512;-2.780;2023-03-31T10:30:55;19.55;;;3.75;;
47455;SDS011;33202;48.512;-2.780;2023-03-31T10:33:24;16.08;;;2.72;;
47455;SDS011;33202;48.512;-2.780;2023-03-31T10:35:55;21.05;;;4.00;;
47455;SDS011;33202;48.512;-2.780;2023-03-31T10:38:25;21.92;;;3.42;;
47455;SDS011;33202;48.512;-2.780;2023-03-31T10:40:53;20.95;;;3.45;;
47455;SDS011;33202;48.512;-2.780;2023-03-31T10:43:23;22.65;;;4.22;;
47455;SDS011;33202;48.512;-2.780;2023-03-31T10:45:57;18.95;;;3.47;;
47455;SDS011;33202;48.512;-2.780;2023-03-31T10:48:28;15.27;;;3.28;;
47455;SDS011;33202;48.512;-2.780;2023-03-31T10:53:38;19.77;;;3.90;;
47455;SDS011;33202;48.512;-2.780;2023-03-31T10:56:11;18.83;;;4.28;;
47455;SDS011;33202;48.512;-2.780;2023-03-31T10:58:55;26.73;;;5.03;;
47455;SDS011;33202;48.512;-2.780;2023-03-31T11:12:02;18.08;;;3.97;;
47455;SDS011;33202;48.512;-2.780;2023-03-31T11:19:49;23.35;;;3.90;;
47455;SDS011;33202;48.512;-2.780;2023-03-31T11:22:23;18.92;;;3.60;;
47455;SDS011;33202;48.512;-2.780;2023-03-31T11:29:58;12.20;;;2.60;;
47455;SDS011;33202;48.512;-2.780;2023-03-31T11:43:06;20.15;;;4.90;;
47455;SDS011;33202;48.512;-2.780;2023-03-31T11:45:43;18.48;;;3.58;;
47455;SDS011;33202;48.512;-2.780;2023-03-31T11:48:23;20.48;;;3.45;;
47455;SDS011;33202;48.512;-2.780;2023-03-31T11:50:50;14.10;;;3.33;;
47455;SDS011;33202;48.512;-2.780;2023-03-31T11:53:22;14.10;;;2.70;;
47455;SDS011;33202;48.512;-2.780;2023-03-31T11:55:50;13.25;;;2.47;;
47455;SDS011;33202;48.512;-2.780;2023-03-31T11:58:22;17.27;;;3.10;;
47455;SDS011;33202;48.512;-2.780;2023-03-31T12:06:16;19.35;;;3.95;;
47455;SDS011;33202;48.512;-2.780;2023-03-31T12:11:18;20.13;;;3.85;;
47455;SDS011;33202;48.512;-2.780;2023-03-31T12:19:14;19.73;;;3.22;;
47455;SDS011;33202;48.512;-2.780;2023-03-31T12:21:49;22.27;;;4.05;;
47455;SDS011;33202;48.512;-2.780;2023-03-31T12:24:16;18.13;;;3.63;;
47455;SDS011;33202;48.512;-2.780;2023-03-31T12:26:50;16.42;;;3.40;;
47455;SDS011;33202;48.512;-2.780;2023-03-31T12:31:51;14.10;;;2.65;;
47455;SDS011;33202;48.512;-2.780;2023-03-31T12:34:18;16.55;;;2.30;;
47455;SDS011;33202;48.512;-2.780;2023-03-31T12:39:33;16.77;;;2.97;;
47455;SDS011;33202;48.512;-2.780;2023-03-31T12:55:22;23.23;;;3.78;;
47455;SDS011;33202;48.512;-2.780;2023-03-31T13:00:42;14.88;;;3.03;;
47455;SDS011;33202;48.512;-2.780;2023-03-31T13:05:58;13.45;;;3.42;;
47455;SDS011;33202;48.512;-2.780;2023-03-31T13:11:08;17.50;;;3.45;;
47455;SDS011;33202;48.512;-2.780;2023-03-31T13:13:34;17.25;;;2.92;;
47455;SDS011;33202;48.512;-2.780;2023-03-31T13:16:00;12.43;;;2.72;;
47455;SDS011;33202;48.512;-2.780;2023-03-31T13:18:27;11.35;;;2.63;;
47455;SDS011;33202;48.512;-2.780;2023-03-31T13:20:58;15.43;;;3.47;;
47455;SDS011;33202;48.512;-2.780;2023-03-31T13:23:24;16.55;;;3.13;;
47455;SDS011;33202;48.512;-2.780;2023-03-31T13:25:53;14.40;;;3.05;;
47455;SDS011;33202;48.512;-2.780;2023-03-31T13:30:54;13.65;;;2.85;;
47455;SDS011;33202;48.512;-2.780;2023-03-31T13:33:25;14.63;;;2.70;;
47455;SDS011;33202;48.512;-2.780;2023-03-31T13:35:58;20.17;;;3.70;;
47455;SDS011;33202;48.512;-2.780;2023-03-31T13:41:18;14.88;;;2.97;;
47455;SDS011;33202;48.512;-2.780;2023-03-31T13:51:47;15.30;;;2.67;;
47455;SDS011;33202;48.512;-2.780;2023-03-31T13:59:59;13.32;;;3.05;;
47455;SDS011;33202;48.512;-2.780;2023-03-31T14:05:24;20.20;;;3.35;;
47455;SDS011;33202;48.512;-2.780;2023-03-31T14:10:32;17.73;;;3.40;;
47455;SDS011;33202;48.512;-2.780;2023-03-31T14:13:08;22.45;;;3.95;;
47455;SDS011;33202;48.512;-2.780;2023-03-31T14:15:35;19.05;;;3.78;;
47455;SDS011;33202;48.512;-2.780;2023-03-31T14:28:09;15.98;;;2.67;;
47455;SDS011;33202;48.512;-2.780;2023-03-31T14:35:41;13.40;;;2.60;;
47455;SDS011;33202;48.512;-2.780;2023-03-31T14:38:18;15.32;;;3.50;;
47455;SDS011;33202;48.512;-2.780;2023-03-31T14:40:48;13.70;;;2.65;;
47455;SDS011;33202;48.512;-2.780;2023-03-31T14:43:19;14.05;;;2.47;;
47455;SDS011;33202;48.512;-2.780;2023-03-31T14:45:46;15.40;;;3.25;;
47455;SDS011;33202;48.512;-2.780;2023-03-31T14:48:13;16.05;;;3.00;;
47455;SDS011;33202;48.512;-2.780;2023-03-31T14:50:43;16.42;;;3.08;;
47455;SDS011;33202;48.512;-2.780;2023-03-31T14:53:13;11.90;;;2.50;;
47455;SDS011;33202;48.512;-2.780;2023-03-31T14:55:40;12.27;;;3.03;;
47455;SDS011;33202;48.512;-2.780;2023-03-31T14:58:07;12.48;;;2.30;;
47455;SDS011;33202;48.512;-2.780;2023-03-31T15:00:36;11.02;;;2.35;;
47455;SDS011;33202;48.512;-2.780;2023-03-31T15:03:05;11.73;;;2.15;;
47455;SDS011;33202;48.512;-2.780;2023-03-31T15:05:35;11.68;;;2.45;;
47455;SDS011;33202;48.512;-2.780;2023-03-31T15:08:13;14.55;;;2.00;;
47455;SDS011;33202;48.512;-2.780;2023-03-31T15:10:42;10.85;;;2.38;;
47455;SDS011;33202;48.512;-2.780;2023-03-31T15:13:10;21.83;;;3.00;;
47455;SDS011;33202;48.512;-2.780;2023-03-31T15:18:02;9.07;;;2.10;;
47455;SDS011;33202;48.512;-2.780;2023-03-31T15:20:35;8.15;;;2.38;;
47455;SDS011;33202;48.512;-2.780;2023-03-31T15:23:17;13.25;;;2.25;;
47455;SDS011;33202;48.512;-2.780;2023-03-31T15:25:48;11.95;;;2.60;;
47455;SDS011;33202;48.512;-2.780;2023-03-31T15:28:15;14.43;;;2.40;;
47455;SDS011;33202;48.512;-2.780;2023-03-31T15:30:42;13.40;;;2.38;;
47455;SDS011;33202;48.512;-2.780;2023-03-31T15:33:16;15.68;;;2.35;;
47455;SDS011;33202;48.512;-2.780;2023-03-31T15:35:43;11.77;;;1.90;;
47455;SDS011;33202;48.512;-2.780;2023-03-31T15:38:09;12.60;;;2.20;;
47455;SDS011;33202;48.512;-2.780;2023-03-31T15:40:37;14.00;;;2.90;;
47455;SDS011;33202;48.512;-2.780;2023-03-31T15:43:11;11.13;;;2.10;;
47455;SDS011;33202;48.512;-2.780;2023-03-31T15:48:08;13.55;;;3.20;;
47455;SDS011;33202;48.512;-2.780;2023-03-31T15:50:39;16.48;;;3.15;;
47455;SDS011;33202;48.512;-2.780;2023-03-31T15:53:18;13.32;;;2.90;;
47455;SDS011;33202;48.512;-2.780;2023-03-31T15:55:46;15.75;;;2.95;;
47455;SDS011;33202;48.512;-2.780;2023-03-31T15:58:14;14.70;;;2.60;;
47455;SDS011;33202;48.512;-2.780;2023-03-31T16:00:44;10.50;;;2.40;;
47455;SDS011;33202;48.512;-2.780;2023-03-31T16:03:16;9.27;;;1.48;;
47455;SDS011;33202;48.512;-2.780;2023-03-31T16:05:48;7.90;;;1.48;;
47455;SDS011;33202;48.512;-2.780;2023-03-31T16:08:16;8.40;;;1.73;;
47455;SDS011;33202;48.512;-2.780;2023-03-31T16:10:45;14.60;;;3.65;;
47455;SDS011;33202;48.512;-2.780;2023-03-31T16:13:15;12.75;;;2.10;;
47455;SDS011;33202;48.512;-2.780;2023-03-31T16:15:46;10.85;;;2.40;;
47455;SDS011;33202;48.512;-2.780;2023-03-31T16:18:14;13.70;;;2.45;;
47455;SDS011;33202;48.512;-2.780;2023-03-31T16:20:42;12.38;;;2.75;;
47455;SDS011;33202;48.512;-2.780;2023-03-31T16:23:17;10.45;;;2.03;;
47455;SDS011;33202;48.512;-2.780;2023-03-31T16:25:43;12.15;;;2.45;;
47455;SDS011;33202;48.512;-2.780;2023-03-31T16:28:14;16.10;;;3.20;;
47455;SDS011;33202;48.512;-2.780;2023-03-31T16:30:41;15.98;;;3.30;;
47455;SDS011;33202;48.512;-2.780;2023-03-31T16:33:09;15.88;;;3.40;;
47455;SDS011;33202;48.512;-2.780;2023-03-31T16:35:36;18.50;;;2.67;;
47455;SDS011;33202;48.512;-2.780;2023-03-31T16:38:04;18.83;;;3.47;;
47455;SDS011;33202;48.512;-2.780;2023-03-31T16:40:30;16.00;;;3.03;;
47455;SDS011;33202;48.512;-2.780;2023-03-31T16:43:06;18.60;;;3.10;;
47455;SDS011;33202;48.512;-2.780;2023-03-31T16:45:32;23.88;;;3.88;;
47455;SDS011;33202;48.512;-2.780;2023-03-31T16:47:58;18.98;;;3.80;;
47455;SDS011;33202;48.512;-2.780;2023-03-31T16:50:24;16.17;;;3.35;;
47455;SDS011;33202;48.512;-2.780;2023-03-31T16:52:50;21.75;;;3.25;;
47455;SDS011;33202;48.512;-2.780;2023-03-31T16:55:16;11.70;;;3.10;;
47455;SDS011;33202;48.512;-2.780;2023-03-31T16:57:42;14.68;;;3.92;;
47455;SDS011;33202;48.512;-2.780;2023-03-31T17:00:08;19.45;;;3.92;;
47455;SDS011;33202;48.512;-2.780;2023-03-31T17:02:34;18.92;;;3.35;;
47455;SDS011;33202;48.512;-2.780;2023-03-31T17:05:00;19.10;;;3.65;;
47455;SDS011;33202;48.512;-2.780;2023-03-31T17:07:27;16.40;;;3.80;;
47455;SDS011;33202;48.512;-2.780;2023-03-31T17:09:54;14.02;;;2.72;;
47455;SDS011;33202;48.512;-2.780;2023-03-31T17:12:20;17.05;;;3.40;;
47455;SDS011;33202;48.512;-2.780;2023-03-31T17:14:46;20.40;;;3.63;;
47455;SDS011;33202;48.512;-2.780;2023-03-31T17:17:12;15.48;;;3.35;;
47455;SDS011;33202;48.512;-2.780;2023-03-31T17:19:38;14.15;;;3.22;;
47455;SDS011;33202;48.512;-2.780;2023-03-31T17:22:05;16.30;;;2.63;;
47455;SDS011;33202;48.512;-2.780;2023-03-31T17:24:31;16.23;;;3.20;;
47455;SDS011;33202;48.512;-2.780;2023-03-31T17:26:57;15.85;;;2.60;;
47455;SDS011;33202;48.512;-2.780;2023-03-31T17:29:23;17.70;;;3.33;;
47455;SDS011;33202;48.512;-2.780;2023-03-31T17:31:49;13.50;;;2.75;;
47455;SDS011;33202;48.512;-2.780;2023-03-31T17:34:15;17.58;;;4.03;;
47455;SDS011;33202;48.512;-2.780;2023-03-31T17:36:41;20.45;;;3.50;;